Time;durP1;ratioP1;P1;durP2;ratioP2;P2;SDS_P1;SDS_P2;PMS_P1;PMS_P2;Temp;Humidity;BMP_temperature;BMP_pressure;BME280_temperature;BME280_humidity;BME280_pressure;Samples;Min_cycle;Max_cycle;Signal;HPM_P1;HPM_P2
2022/04/23 00:00:37;;;;;;;23.32;17.25;;;20.70;43.60;;;;;;1874111;76;21231;-53
2022/04/23 00:03:04;;;;;;;19.52;16.82;;;20.70;43.50;;;;;;1856859;75;21668;-56
2022/04/23 00:05:31;;;;;;;19.70;17.60;;;20.70;43.50;;;;;;1874925;75;21090;-57
2022/04/23 00:07:59;;;;;;;20.55;17.67;;;20.70;43.50;;;;;;1876130;75;21097;-56
2022/04/23 00:10:26;;;;;;;18.87;16.23;;;20.70;43.40;;;;;;1851303;76;21118;-54
2022/04/23 00:12:54;;;;;;;23.02;17.02;;;20.70;43.60;;;;;;1861718;75;21117;-54
2022/04/23 00:15:25;;;;;;;18.95;16.05;;;20.70;43.50;;;;;;1857932;76;22172;-56
2022/04/23 00:17:52;;;;;;;23.52;17.05;;;20.60;43.50;;;;;;1868617;76;21114;-56
2022/04/23 00:20:23;;;;;;;20.37;17.50;;;20.60;43.60;;;;;;1876334;75;21267;-55
2022/04/23 00:22:49;;;;;;;18.17;15.72;;;20.70;44.10;;;;;;1826745;77;21178;-56
2022/04/23 00:25:16;;;;;;;18.73;16.45;;;20.60;43.50;;;;;;1807434;79;21133;-55
2022/04/23 00:27:44;;;;;;;18.57;15.32;;;20.60;44.10;;;;;;1841229;76;21150;-56
2022/04/23 00:30:12;;;;;;;21.42;15.68;;;20.60;43.60;;;;;;1811564;78;21134;-54
2022/04/23 00:32:39;;;;;;;21.23;15.98;;;20.60;43.50;;;;;;1793260;79;21174;-54
2022/04/23 00:35:07;;;;;;;18.40;16.12;;;20.60;43.50;;;;;;1872564;76;21246;-55
2022/04/23 00:37:34;;;;;;;19.10;15.72;;;20.60;43.50;;;;;;1890105;74;21092;-56
2022/04/23 00:40:06;;;;;;;20.35;17.05;;;20.60;43.40;;;;;;1875442;75;21081;-56
2022/04/23 00:42:31;;;;;;;17.27;14.85;;;20.60;43.50;;;;;;1869684;75;21531;-56
2022/04/23 00:44:58;;;;;;;19.17;15.83;;;20.60;43.40;;;;;;1870511;75;21174;-57
2022/04/23 00:47:26;;;;;;;18.90;15.10;;;20.60;43.50;;;;;;1870323;77;21145;-55
2022/04/23 00:49:53;;;;;;;17.25;14.87;;;20.60;43.40;;;;;;1875312;75;21309;-55
2022/04/23 00:52:20;;;;;;;15.32;13.65;;;20.60;43.40;;;;;;1910720;74;21077;-52
2022/04/23 00:54:47;;;;;;;16.65;13.93;;;20.60;43.30;;;;;;1910058;74;21152;-54
2022/04/23 00:57:15;;;;;;;17.62;15.25;;;20.60;43.30;;;;;;1910287;74;21078;-55
2022/04/23 00:59:43;;;;;;;16.17;13.58;;;20.60;43.30;;;;;;1907843;74;21123;-56
2022/04/23 01:02:12;;;;;;;17.73;14.45;;;20.60;43.30;;;;;;1880625;75;21071;-55
2022/04/23 01:04:39;;;;;;;17.82;13.65;;;20.60;43.30;;;;;;1859686;77;21679;-56
2022/04/23 01:07:06;;;;;;;17.85;14.33;;;20.60;43.20;;;;;;1876069;74;21164;-56
2022/04/23 01:09:34;;;;;;;16.85;14.23;;;20.60;43.20;;;;;;1897808;75;21098;-57
2022/04/23 01:12:01;;;;;;;16.77;14.30;;;20.60;43.20;;;;;;1864923;75;21216;-53
2022/04/23 01:14:28;;;;;;;15.85;14.10;;;20.60;43.20;;;;;;1877864;75;21129;-57
2022/04/23 01:16:56;;;;;;;17.77;13.60;;;20.60;43.20;;;;;;1878144;75;21062;-52
2022/04/23 01:19:23;;;;;;;18.02;13.95;;;20.50;43.10;;;;;;1874319;75;21553;-55
2022/04/23 01:21:50;;;;;;;18.15;14.38;;;20.60;43.20;;;;;;1863841;74;21107;-56
2022/04/23 01:24:18;;;;;;;15.93;13.48;;;20.60;43.20;;;;;;1860212;76;21646;-55
2022/04/23 01:26:45;;;;;;;18.80;13.70;;;20.50;43.10;;;;;;1860118;77;21207;-55
2022/04/23 01:29:13;;;;;;;17.45;13.60;;;20.50;43.00;;;;;;1860628;77;22213;-56
2022/04/23 01:31:40;;;;;;;14.80;12.95;;;20.50;43.20;;;;;;1860688;77;21126;-54
2022/04/23 01:34:07;;;;;;;16.12;13.95;;;20.50;43.10;;;;;;1860395;76;21110;-55
2022/04/23 01:36:35;;;;;;;17.12;13.15;;;20.60;43.10;;;;;;1882554;74;21122;-55
2022/04/23 01:39:02;;;;;;;13.62;12.23;;;20.50;43.10;;;;;;1900274;75;21118;-55
2022/04/23 01:41:29;;;;;;;18.30;14.25;;;20.60;43.10;;;;;;1900259;75;21185;-58
2022/04/23 01:43:57;;;;;;;15.48;13.18;;;20.50;43.00;;;;;;1900115;74;21617;-55
2022/04/23 01:46:24;;;;;;;14.95;13.22;;;20.50;43.00;;;;;;1896481;75;21605;-56
2022/04/23 01:48:52;;;;;;;12.88;11.57;;;20.50;43.00;;;;;;1861258;74;21065;-56
2022/04/23 01:51:19;;;;;;;16.35;12.63;;;20.50;43.00;;;;;;1863681;74;21114;-56
2022/04/23 01:53:46;;;;;;;16.32;13.60;;;20.50;43.00;;;;;;1859989;76;21130;-56
2022/04/23 01:56:13;;;;;;;14.47;12.82;;;20.50;42.90;;;;;;1863644;74;21155;-56
2022/04/23 01:58:41;;;;;;;14.50;12.45;;;20.50;43.00;;;;;;1860193;77;21386;-56
2022/04/23 02:01:08;;;;;;;17.12;12.25;;;20.50;42.90;;;;;;1861234;75;21184;-57
2022/04/23 02:03:35;;;;;;;16.77;12.18;;;20.50;43.00;;;;;;1872879;75;21126;-54
2022/04/23 02:06:03;;;;;;;14.30;11.93;;;20.50;42.90;;;;;;1871706;76;21106;-55
2022/04/23 02:08:30;;;;;;;13.75;11.63;;;20.50;42.90;;;;;;1860221;77;21106;-55
2022/04/23 02:10:58;;;;;;;13.08;11.38;;;20.50;42.90;;;;;;1858282;76;21198;-55
2022/04/23 02:13:26;;;;;;;14.60;12.28;;;20.50;42.90;;;;;;1858328;75;21134;-54
2022/04/23 02:15:54;;;;;;;14.70;11.55;;;20.50;42.80;;;;;;1867215;75;21059;-54
2022/04/23 02:18:22;;;;;;;16.40;12.43;;;20.50;42.90;;;;;;1863005;76;21133;-55
2022/04/23 02:20:49;;;;;;;13.72;12.25;;;20.50;42.90;;;;;;1861144;75;21036;-56
2022/04/23 02:23:17;;;;;;;14.38;12.28;;;20.50;42.90;;;;;;1861359;76;21127;-56
2022/04/23 02:25:44;;;;;;;12.85;11.50;;;20.50;43.00;;;;;;1860350;77;21121;-56
2022/04/23 02:28:12;;;;;;;12.82;11.30;;;20.50;42.80;;;;;;1860453;77;21131;-53
2022/04/23 02:30:40;;;;;;;13.68;12.18;;;20.40;42.80;;;;;;1860128;77;21596;-54
2022/04/23 02:33:07;;;;;;;13.28;11.88;;;20.50;42.80;;;;;;1860437;76;21107;-55
2022/04/23 02:35:34;;;;;;;15.13;12.93;;;20.50;42.80;;;;;;1864513;76;21136;-55
2022/04/23 02:38:04;;;;;;;12.25;10.60;;;20.40;42.90;;;;;;1871123;76;21090;-55
2022/04/23 02:40:32;;;;;;;15.43;11.53;;;20.50;42.80;;;;;;1871045;76;21137;-56
2022/04/23 02:43:02;;;;;;;14.73;12.30;;;20.40;42.80;;;;;;1863092;76;21126;-54
2022/04/23 02:45:28;;;;;;;11.68;10.48;;;20.40;42.80;;;;;;1865159;76;21082;-55
2022/04/23 02:47:57;;;;;;;12.15;10.82;;;20.40;42.80;;;;;;1860231;77;21095;-54
2022/04/23 02:50:28;;;;;;;12.33;10.38;;;20.50;42.80;;;;;;1859912;77;21099;-56
2022/04/23 02:52:56;;;;;;;12.80;11.10;;;20.40;42.70;;;;;;1855137;76;21137;-56
2022/04/23 02:55:24;;;;;;;12.13;10.40;;;20.40;42.70;;;;;;1860428;77;21188;-55
2022/04/23 02:57:51;;;;;;;13.43;10.70;;;20.40;42.70;;;;;;1860255;77;21657;-58
2022/04/23 03:00:19;;;;;;;12.43;10.93;;;20.40;42.70;;;;;;1859975;77;21118;-57
2022/04/23 03:02:47;;;;;;;14.70;11.25;;;20.40;42.70;;;;;;1857243;76;21807;-53
2022/04/23 03:05:15;;;;;;;12.45;10.78;;;20.40;42.70;;;;;;1859773;77;21103;-56
2022/04/23 03:07:42;;;;;;;11.35;10.15;;;20.40;42.70;;;;;;1859859;77;21138;-54
2022/04/23 03:10:11;;;;;;;11.73;10.30;;;20.40;42.70;;;;;;1875723;75;21171;-54
2022/04/23 03:12:38;;;;;;;11.70;10.48;;;20.40;42.70;;;;;;1892181;75;21137;-57
2022/04/23 03:15:07;;;;;;;13.08;11.15;;;20.40;42.70;;;;;;1879107;76;21032;-53
2022/04/23 03:17:34;;;;;;;11.65;10.45;;;20.40;42.70;;;;;;1860297;77;21785;-56
2022/04/23 03:20:01;;;;;;;11.93;9.95;;;20.40;42.70;;;;;;1879277;75;21148;-56
2022/04/23 03:22:29;;;;;;;10.90;9.75;;;20.40;42.60;;;;;;1893927;75;21351;-59
2022/04/23 03:24:56;;;;;;;11.05;9.80;;;20.40;42.70;;;;;;1894034;76;21203;-55
2022/04/23 03:27:23;;;;;;;12.93;10.50;;;20.40;42.70;;;;;;1883160;75;21220;-56
2022/04/23 03:29:51;;;;;;;12.40;10.23;;;20.40;42.70;;;;;;1860509;77;21625;-53
2022/04/23 03:32:18;;;;;;;10.58;9.43;;;20.40;42.80;;;;;;1860198;76;21023;-55
2022/04/23 03:34:45;;;;;;;10.38;9.30;;;20.40;42.60;;;;;;1860117;77;21573;-56
2022/04/23 03:37:13;;;;;;;11.93;10.30;;;20.40;42.70;;;;;;1860361;77;21114;-53
2022/04/23 03:39:40;;;;;;;10.53;9.13;;;20.40;42.70;;;;;;1859901;77;21618;-55
2022/04/23 03:42:07;;;;;;;11.18;10.05;;;20.30;42.70;;;;;;1860032;76;21216;-54
2022/04/23 03:44:35;;;;;;;11.22;9.30;;;20.40;42.70;;;;;;1863097;76;21157;-54
2022/04/23 03:47:02;;;;;;;10.45;9.35;;;20.30;42.60;;;;;;1872786;75;21560;-55
2022/04/23 03:49:30;;;;;;;11.30;9.73;;;20.40;43.30;;;;;;1860125;77;21125;-55
2022/04/23 03:51:59;;;;;;;11.45;9.20;;;20.30;42.70;;;;;;1859884;76;21550;-54
2022/04/23 03:54:27;;;;;;;12.05;9.83;;;20.30;42.60;;;;;;1858170;76;21620;-55
2022/04/23 03:56:54;;;;;;;10.30;9.00;;;20.40;42.70;;;;;;1859675;76;21071;-56
2022/04/23 03:59:23;;;;;;;9.78;8.80;;;20.40;42.70;;;;;;1859737;77;21215;-56
2022/04/23 04:01:55;;;;;;;10.10;8.83;;;20.30;42.70;;;;;;1867747;74;21165;-57
2022/04/23 04:04:23;;;;;;;9.43;8.43;;;20.30;42.60;;;;;;1872846;75;21151;-56
2022/04/23 04:06:51;;;;;;;9.55;8.55;;;20.30;42.70;;;;;;1873079;75;21126;-54
2022/04/23 04:09:18;;;;;;;11.28;9.05;;;20.30;42.80;;;;;;1872675;76;21117;-56
2022/04/23 04:12:01;;;;;;;10.08;8.85;;;20.30;42.70;;;;;;1872815;76;21184;-57
2022/04/23 04:14:33;;;;;;;10.13;9.05;;;20.30;42.70;;;;;;1878433;75;21219;-56
2022/04/23 04:17:00;;;;;;;11.08;9.30;;;20.30;42.70;;;;;;1907574;75;21614;-55
2022/04/23 04:19:32;;;;;;;10.13;9.08;;;20.30;42.70;;;;;;1907596;75;21083;-53
2022/04/23 04:22:02;;;;;;;10.30;9.25;;;20.30;42.80;;;;;;1905646;74;21083;-55
2022/04/23 04:24:28;;;;;;;11.15;8.13;;;20.30;42.70;;;;;;1907323;74;21616;-57
2022/04/23 04:26:55;;;;;;;9.93;8.93;;;20.30;42.70;;;;;;1907506;75;21172;-54
2022/04/23 04:29:23;;;;;;;11.38;9.98;;;20.30;42.70;;;;;;1907592;75;21179;-55
2022/04/23 04:31:51;;;;;;;12.90;8.98;;;20.30;42.70;;;;;;1870639;75;21440;-56
2022/04/23 04:34:19;;;;;;;10.63;9.00;;;20.30;42.70;;;;;;1878919;75;21254;-56
2022/04/23 04:36:48;;;;;;;10.72;9.00;;;20.30;42.80;;;;;;1892404;74;21183;-57
2022/04/23 04:39:16;;;;;;;11.35;9.58;;;20.30;42.70;;;;;;1907445;74;21191;-56
2022/04/23 04:41:43;;;;;;;11.00;8.40;;;20.30;42.70;;;;;;1907490;75;21121;-54
2022/04/23 04:44:11;;;;;;;10.32;9.23;;;20.30;42.80;;;;;;1907100;74;21145;-55
2022/04/23 04:46:41;;;;;;;10.03;8.75;;;20.30;42.70;;;;;;1873043;76;21125;-56
2022/04/23 04:49:08;;;;;;;10.13;9.03;;;20.30;42.70;;;;;;1873304;76;21106;-56
2022/04/23 04:51:36;;;;;;;10.05;8.75;;;20.30;42.70;;;;;;1890686;74;21085;-52
2022/04/23 04:54:05;;;;;;;10.58;9.25;;;20.30;42.70;;;;;;1907118;74;21153;-55
2022/04/23 04:56:33;;;;;;;10.78;8.83;;;20.30;42.60;;;;;;1906637;74;21109;-57
2022/04/23 04:59:01;;;;;;;10.78;8.85;;;20.30;42.70;;;;;;1907522;74;21113;-55
2022/04/23 05:01:28;;;;;;;10.15;9.05;;;20.30;42.80;;;;;;1901927;74;21136;-54
2022/04/23 05:03:56;;;;;;;10.23;9.13;;;20.30;42.80;;;;;;1891965;74;21781;-52
2022/04/23 05:06:23;;;;;;;10.63;9.10;;;20.30;42.70;;;;;;1872881;76;21102;-55
2022/04/23 05:08:50;;;;;;;9.48;8.53;;;20.30;42.70;;;;;;1873462;75;21070;-55
2022/04/23 05:11:17;;;;;;;11.33;9.23;;;20.30;42.70;;;;;;1888229;74;21066;-55
2022/04/23 05:13:45;;;;;;;10.38;8.85;;;20.30;42.70;;;;;;1907158;74;21138;-52
2022/04/23 05:16:12;;;;;;;10.25;9.13;;;20.30;42.70;;;;;;1907381;75;21058;-55
2022/04/23 05:18:39;;;;;;;9.95;8.40;;;20.30;42.70;;;;;;1907278;75;21133;-55
2022/04/23 05:21:07;;;;;;;11.03;9.53;;;20.30;43.40;;;;;;1906477;74;21127;-55
2022/04/23 05:23:34;;;;;;;9.80;8.40;;;20.30;42.80;;;;;;1906091;74;21149;-55
2022/04/23 05:26:03;;;;;;;10.50;8.45;;;20.30;42.70;;;;;;1906932;75;21191;-52
2022/04/23 05:28:31;;;;;;;10.48;8.53;;;20.30;42.80;;;;;;1907537;75;21616;-55
2022/04/23 05:30:58;;;;;;;10.40;8.05;;;20.30;42.70;;;;;;1906502;75;21131;-54
2022/04/23 05:33:26;;;;;;;9.58;8.50;;;20.30;42.70;;;;;;1906676;74;21226;-56
2022/04/23 05:35:53;;;;;;;8.98;8.08;;;20.30;42.70;;;;;;1907180;75;21643;-52
2022/04/23 05:38:21;;;;;;;10.53;8.75;;;20.30;42.80;;;;;;1907459;74;21172;-57
2022/04/23 05:40:51;;;;;;;10.03;8.93;;;20.30;42.70;;;;;;1907519;75;21066;-55
2022/04/23 05:43:19;;;;;;;11.65;8.43;;;20.30;42.70;;;;;;1907787;74;21149;-55
2022/04/23 05:45:46;;;;;;;9.10;8.20;;;20.30;42.80;;;;;;1903926;74;21587;-53
2022/04/23 05:48:13;;;;;;;9.50;8.48;;;20.30;42.80;;;;;;1873522;76;21121;-56
2022/04/23 05:50:41;;;;;;;9.38;8.30;;;20.30;42.80;;;;;;1873654;76;21067;-54
2022/04/23 05:53:08;;;;;;;9.30;8.40;;;20.30;42.80;;;;;;1873441;75;21102;-54
2022/04/23 05:55:36;;;;;;;8.80;7.90;;;20.30;42.80;;;;;;1873443;76;21114;-55
2022/04/23 05:58:03;;;;;;;9.13;8.15;;;20.30;42.80;;;;;;1873359;75;21125;-54
2022/04/23 06:00:30;;;;;;;9.53;8.53;;;20.30;42.80;;;;;;1873331;76;21674;-55
2022/04/23 06:02:58;;;;;;;9.25;8.25;;;20.30;42.80;;;;;;1874368;74;21220;-55
2022/04/23 06:05:25;;;;;;;9.05;8.15;;;20.30;42.80;;;;;;1870322;76;21648;-53
2022/04/23 06:07:52;;;;;;;8.38;7.45;;;20.30;42.80;;;;;;1869404;74;21098;-55
2022/04/23 06:10:20;;;;;;;9.63;8.10;;;20.30;42.80;;;;;;1858063;77;21184;-51
2022/04/23 06:12:47;;;;;;;8.83;7.92;;;20.30;42.80;;;;;;1859408;75;21129;-55
2022/04/23 06:15:14;;;;;;;8.65;7.67;;;20.30;43.00;;;;;;1857891;77;21118;-55
2022/04/23 06:17:41;;;;;;;10.30;8.93;;;20.30;42.80;;;;;;1858553;74;21110;-54
2022/04/23 06:20:10;;;;;;;10.05;8.03;;;20.30;42.80;;;;;;1858004;77;21142;-54
2022/04/23 06:22:37;;;;;;;9.73;8.73;;;20.30;42.80;;;;;;1895894;74;21142;-54
2022/04/23 06:25:06;;;;;;;9.48;8.10;;;20.30;42.80;;;;;;1900082;75;21110;-56
2022/04/23 06:27:33;;;;;;;8.28;7.33;;;20.30;42.90;;;;;;1900290;75;21218;-55
2022/04/23 06:30:01;;;;;;;8.48;7.62;;;20.30;42.90;;;;;;1899830;75;21067;-55
2022/04/23 06:32:28;;;;;;;9.68;8.55;;;20.30;42.80;;;;;;1871106;75;21196;-58
2022/04/23 06:34:56;;;;;;;10.45;8.90;;;20.30;42.80;;;;;;1861370;74;21106;-55
2022/04/23 06:37:23;;;;;;;9.80;8.50;;;20.30;42.90;;;;;;1857708;77;21141;-54
2022/04/23 06:39:51;;;;;;;8.73;7.80;;;20.40;43.40;;;;;;1857748;77;21592;-56
2022/04/23 06:42:18;;;;;;;8.25;7.45;;;20.40;42.90;;;;;;1860499;74;21630;-57
2022/04/23 06:44:46;;;;;;;11.22;8.38;;;20.40;42.90;;;;;;1857881;76;21228;-57
2022/04/23 06:47:15;;;;;;;8.60;7.72;;;20.40;43.10;;;;;;1858112;77;21154;-57
2022/04/23 06:49:42;;;;;;;9.83;8.35;;;20.40;43.00;;;;;;1859652;76;21644;-54
2022/04/23 06:52:10;;;;;;;10.20;8.53;;;20.40;42.90;;;;;;1860386;76;21072;-55
2022/04/23 06:54:37;;;;;;;9.70;8.28;;;20.40;43.00;;;;;;1864146;74;22272;-57
2022/04/23 06:57:05;;;;;;;10.53;9.13;;;20.40;43.00;;;;;;1863460;75;21158;-57
2022/04/23 06:59:33;;;;;;;9.78;8.23;;;20.50;43.10;;;;;;1862713;76;21162;-58
2022/04/23 07:02:02;;;;;;;8.53;7.72;;;20.50;43.10;;;;;;1859497;75;21097;-57
2022/04/23 07:04:30;;;;;;;9.15;7.58;;;20.50;43.00;;;;;;1862360;75;21148;-56
2022/04/23 07:06:58;;;;;;;11.28;7.20;;;20.50;43.10;;;;;;1886816;75;21078;-57
2022/04/23 07:09:25;;;;;;;13.22;8.33;;;20.50;43.40;;;;;;1886199;74;21545;-58
2022/04/23 07:11:52;;;;;;;10.38;7.60;;;20.60;43.90;;;;;;1903752;75;21125;-55
2022/04/23 07:14:20;;;;;;;19.32;8.30;;;20.60;43.50;;;;;;1895130;74;21149;-57
2022/04/23 07:16:47;;;;;;;21.62;7.95;;;20.70;43.60;;;;;;1888930;75;21134;-57
2022/04/23 07:19:15;;;;;;;16.00;7.70;;;20.70;43.60;;;;;;1891251;76;21114;-57
2022/04/23 07:21:42;;;;;;;12.68;7.42;;;20.60;43.60;;;;;;1891417;76;21110;-56
2022/04/23 07:24:11;;;;;;;17.98;9.05;;;20.70;43.70;;;;;;1891337;75;21138;-56
2022/04/23 07:26:39;;;;;;;14.45;8.45;;;20.60;43.80;;;;;;1891053;76;21142;-55
2022/04/23 07:29:07;;;;;;;19.25;7.53;;;20.60;44.00;;;;;;1887761;74;21126;-59
2022/04/23 07:31:36;;;;;;;16.30;7.30;;;20.70;44.10;;;;;;1891473;76;22089;-57
2022/04/23 07:39:34;;;;;;;22.25;9.70;;;20.60;43.40;;;;;;1881353;74;21079;-57
2022/04/23 07:42:01;;;;;;;13.83;8.40;;;20.30;43.10;;;;;;1867466;75;21137;-55
2022/04/23 07:44:29;;;;;;;22.98;9.53;;;20.30;44.50;;;;;;1877932;74;21098;-57
2022/04/23 07:46:56;;;;;;;16.02;9.55;;;20.30;44.10;;;;;;1870646;75;21110;-53
2022/04/23 07:49:23;;;;;;;15.28;9.03;;;20.40;44.20;;;;;;1859225;75;21172;-55
2022/04/23 07:51:51;;;;;;;21.68;9.03;;;20.50;43.90;;;;;;1870264;76;21163;-59
2022/04/23 07:54:18;;;;;;;18.07;9.00;;;20.50;43.90;;;;;;1879845;75;21128;-57
2022/04/23 07:56:45;;;;;;;18.15;8.40;;;20.60;43.80;;;;;;1879348;76;21105;-56
2022/04/23 07:59:13;;;;;;;17.32;8.73;;;20.60;43.90;;;;;;1879735;76;21481;-58
2022/04/23 08:01:40;;;;;;;26.62;8.75;;;20.60;43.70;;;;;;1879302;75;21030;-57
2022/04/23 08:04:07;;;;;;;22.42;8.85;;;20.60;43.90;;;;;;1876115;75;21149;-55
2022/04/23 08:06:35;;;;;;;20.08;8.98;;;20.60;44.00;;;;;;1870807;76;21093;-57
2022/04/23 08:09:03;;;;;;;24.50;9.35;;;20.60;44.00;;;;;;1870895;76;21157;-56
2022/04/23 08:11:30;;;;;;;17.23;8.35;;;20.60;44.00;;;;;;1870384;76;21070;-56
2022/04/23 08:13:57;;;;;;;18.82;8.00;;;20.60;44.00;;;;;;1870082;75;21125;-54
2022/04/23 08:16:28;;;;;;;19.95;7.75;;;20.50;43.90;;;;;;1869838;77;21589;-56
2022/04/23 08:18:55;;;;;;;12.80;7.87;;;20.60;43.90;;;;;;1870160;77;21661;-57
2022/04/23 08:21:23;;;;;;;12.28;7.47;;;20.60;44.00;;;;;;1869542;77;21487;-56
2022/04/23 08:23:50;;;;;;;12.95;7.97;;;20.60;44.00;;;;;;1870259;75;21094;-57
2022/04/23 08:26:17;;;;;;;14.75;8.15;;;20.60;43.90;;;;;;1870537;77;21176;-57
2022/04/23 08:31:30;;;;;;;19.57;7.72;;;20.60;43.90;;;;;;1870574;77;21117;-56
2022/04/23 08:34:04;;;;;;;13.70;8.58;;;20.60;43.90;;;;;;1870677;75;21130;-55
2022/04/23 08:36:31;;;;;;;17.37;8.98;;;20.60;43.90;;;;;;1869913;76;21094;-56
2022/04/23 08:38:59;;;;;;;11.35;8.25;;;20.60;43.90;;;;;;1870269;76;21507;-56
2022/04/23 08:41:30;;;;;;;12.68;7.58;;;20.60;43.80;;;;;;1870255;77;21312;-57
2022/04/23 08:44:07;;;;;;;17.25;8.55;;;20.60;43.80;;;;;;1870325;75;21209;-54
2022/04/23 08:46:36;;;;;;;16.67;8.10;;;20.60;43.80;;;;;;1869800;77;21191;-57
2022/04/23 08:49:13;;;;;;;16.57;8.45;;;20.60;43.70;;;;;;1869946;77;21567;-54
2022/04/23 08:51:42;;;;;;;10.55;7.75;;;20.60;43.80;;;;;;1869684;77;21140;-54
2022/04/23 08:54:12;;;;;;;14.33;8.10;;;20.50;43.80;;;;;;1870420;75;21125;-56
2022/04/23 08:56:44;;;;;;;16.35;9.45;;;20.60;43.70;;;;;;1870426;76;21698;-57
2022/04/23 08:59:14;;;;;;;10.00;8.20;;;20.60;43.70;;;;;;1870133;76;21187;-53
2022/04/23 09:01:41;;;;;;;12.53;8.30;;;20.60;43.80;;;;;;1869245;77;21215;-58
2022/04/23 09:04:09;;;;;;;13.83;7.80;;;20.60;43.70;;;;;;1876045;74;21137;-55
2022/04/23 09:06:38;;;;;;;11.33;8.30;;;20.60;43.60;;;;;;1898449;74;21105;-53
2022/04/23 09:09:25;;;;;;;13.43;8.60;;;20.60;43.70;;;;;;1896709;74;21110;-58
2022/04/23 09:11:55;;;;;;;11.30;7.72;;;20.60;43.70;;;;;;1898409;75;21349;-56
2022/04/23 09:14:33;;;;;;;15.23;9.00;;;20.60;43.70;;;;;;1898627;74;21158;-56
2022/04/23 09:25:38;;;;;;;16.87;8.60;;;20.60;43.80;;;;;;1898456;74;21126;-56
2022/04/23 09:28:28;;;;;;;15.65;7.90;;;20.60;43.80;;;;;;1897824;74;21091;-55
2022/04/23 09:30:56;;;;;;;13.83;8.30;;;20.60;43.70;;;;;;1898206;75;21137;-57
2022/04/23 09:33:28;;;;;;;13.00;8.25;;;20.60;43.70;;;;;;1898485;74;21184;-56
2022/04/23 09:35:55;;;;;;;10.20;8.45;;;20.60;43.70;;;;;;1896925;74;21828;-57
2022/04/23 09:38:22;;;;;;;10.70;8.35;;;20.60;43.70;;;;;;1897947;75;21530;-57
2022/04/23 09:40:56;;;;;;;11.73;7.87;;;20.60;43.70;;;;;;1897953;75;21138;-57
2022/04/23 09:43:30;;;;;;;10.30;8.15;;;20.60;43.70;;;;;;1897627;74;21207;-54
2022/04/23 09:46:11;;;;;;;11.75;7.72;;;20.60;43.70;;;;;;1879888;76;21183;-56
2022/04/23 09:48:40;;;;;;;9.63;7.92;;;20.60;43.70;;;;;;1880491;76;21094;-54
2022/04/23 09:51:21;;;;;;;10.15;8.48;;;20.60;43.70;;;;;;1884208;74;21093;-56
2022/04/23 09:53:50;;;;;;;8.85;7.25;;;20.60;43.70;;;;;;1879872;75;21153;-56
2022/04/23 09:56:17;;;;;;;9.00;7.85;;;20.60;43.70;;;;;;1892709;74;21141;-55
2022/04/23 09:58:45;;;;;;;10.23;7.97;;;20.60;43.70;;;;;;1872077;75;21199;-55
2022/04/23 10:01:12;;;;;;;9.28;7.97;;;20.70;43.60;;;;;;1867511;75;21101;-57
2022/04/23 10:03:40;;;;;;;10.28;7.85;;;20.60;43.60;;;;;;1867470;75;21605;-56
2022/04/23 10:06:07;;;;;;;11.55;7.75;;;20.70;43.60;;;;;;1885179;74;21141;-54
2022/04/23 10:08:34;;;;;;;9.58;8.10;;;20.70;43.60;;;;;;1900181;74;22433;-56
2022/04/23 10:11:14;;;;;;;9.90;7.83;;;20.70;43.60;;;;;;1900330;75;21106;-54
2022/04/23 10:13:44;;;;;;;13.05;8.05;;;20.70;43.60;;;;;;1900588;74;21130;-54
2022/04/23 10:16:11;;;;;;;11.60;8.63;;;20.70;43.60;;;;;;1869555;75;21103;-54
2022/04/23 10:18:39;;;;;;;14.40;9.05;;;20.70;43.50;;;;;;1900149;75;21729;-56
2022/04/23 10:21:10;;;;;;;10.32;8.20;;;20.70;43.50;;;;;;1900517;75;21039;-56
2022/04/23 10:23:59;;;;;;;13.72;8.43;;;20.70;43.60;;;;;;1900465;74;21121;-57
2022/04/23 10:26:49;;;;;;;10.80;7.67;;;20.70;43.50;;;;;;1896339;75;21160;-55
2022/04/23 10:29:24;;;;;;;12.00;7.90;;;20.70;43.50;;;;;;1888630;75;21106;-55
2022/04/23 10:32:14;;;;;;;9.55;7.65;;;20.70;43.60;;;;;;1868400;76;21110;-58
2022/04/23 10:34:42;;;;;;;9.75;8.75;;;20.70;43.60;;;;;;1858494;74;21118;-56
2022/04/23 10:37:23;;;;;;;8.98;7.80;;;20.70;43.70;;;;;;1858257;77;21122;-58
2022/04/23 10:39:56;;;;;;;9.48;7.95;;;20.70;43.70;;;;;;1858538;77;21379;-57
2022/04/23 10:42:24;;;;;;;10.30;8.68;;;20.70;43.70;;;;;;1858217;76;21686;-56
2022/04/23 10:44:54;;;;;;;10.10;8.13;;;20.70;44.20;;;;;;1857733;77;21126;-56
2022/04/23 10:47:34;;;;;;;9.58;8.00;;;20.70;43.60;;;;;;1883719;74;21138;-56
2022/04/23 10:50:23;;;;;;;11.12;8.33;;;20.70;43.60;;;;;;1890685;74;21183;-56
2022/04/23 10:52:53;;;;;;;10.20;8.70;;;20.80;43.60;;;;;;1895550;74;21447;-57
2022/04/23 10:55:24;;;;;;;10.58;8.45;;;20.80;43.60;;;;;;1857752;76;21146;-56
2022/04/23 10:57:57;;;;;;;10.43;7.70;;;20.80;43.60;;;;;;1857238;77;22297;-54
2022/04/23 11:00:30;;;;;;;9.20;7.95;;;20.80;43.50;;;;;;1857765;77;21169;-55
2022/04/23 11:03:01;;;;;;;11.00;7.85;;;20.80;43.50;;;;;;1857119;76;21616;-56
2022/04/23 11:13:59;;;;;;;9.50;8.50;;;20.80;43.50;;;;;;1857915;76;21261;-56
2022/04/23 11:16:31;;;;;;;11.08;7.92;;;20.80;43.50;;;;;;1858351;77;21208;-57
2022/04/23 11:18:58;;;;;;;10.00;7.58;;;20.80;43.50;;;;;;1857199;77;21146;-57
2022/04/23 11:21:27;;;;;;;10.37;8.23;;;20.80;43.50;;;;;;1858370;77;21133;-53
2022/04/23 11:23:58;;;;;;;10.78;7.95;;;20.80;43.40;;;;;;1858071;76;22337;-56
2022/04/23 11:26:45;;;;;;;10.70;7.72;;;20.80;43.50;;;;;;1858016;77;21114;-55
2022/04/23 11:29:13;;;;;;;11.50;7.83;;;20.80;43.40;;;;;;1858064;77;21126;-56
2022/04/23 11:31:41;;;;;;;8.98;7.58;;;20.80;43.50;;;;;;1858076;77;21083;-55
2022/04/23 11:34:09;;;;;;;10.23;8.10;;;20.80;43.50;;;;;;1858042;76;21134;-56
2022/04/23 11:36:36;;;;;;;8.63;7.67;;;20.80;43.60;;;;;;1858254;77;21142;-56
2022/04/23 11:39:10;;;;;;;9.80;8.20;;;20.80;43.50;;;;;;1858218;77;21145;-57
2022/04/23 11:41:39;;;;;;;11.63;8.50;;;20.80;43.60;;;;;;1857925;77;21134;-56
2022/04/23 11:44:45;;;;;;;9.10;7.92;;;20.80;43.50;;;;;;1857881;76;21064;-56
2022/04/23 11:46:50;;;;;;;8.63;7.17;;;20.80;43.50;;;;;;1853641;77;21580;-56
2022/04/23 11:49:31;;;;;;;8.33;7.22;;;20.80;43.40;;;;;;1857794;77;21138;-56
2022/04/23 11:52:13;;;;;;;9.35;8.35;;;20.80;43.80;;;;;;1857490;77;21383;-56
2022/04/23 11:54:43;;;;;;;9.00;7.70;;;20.80;43.40;;;;;;1858377;76;21107;-57
2022/04/23 11:57:14;;;;;;;8.38;6.65;;;20.80;43.50;;;;;;1858493;77;21145;-56
2022/04/23 11:59:46;;;;;;;9.68;8.13;;;20.80;43.40;;;;;;1858275;77;21122;-56
2022/04/23 12:02:25;;;;;;;9.73;8.48;;;20.80;43.40;;;;;;1857843;77;21114;-55
2022/04/23 12:04:53;;;;;;;8.30;7.20;;;20.80;43.40;;;;;;1858023;77;21568;-55
2022/04/23 12:07:22;;;;;;;8.85;7.40;;;20.80;43.40;;;;;;1869303;77;21200;-56
2022/04/23 12:09:53;;;;;;;9.20;7.42;;;20.80;43.40;;;;;;1870583;76;21223;-57
2022/04/23 12:12:28;;;;;;;11.43;8.55;;;20.80;43.50;;;;;;1870760;75;21192;-57
2022/04/23 12:15:00;;;;;;;10.05;7.50;;;20.80;43.50;;;;;;1870652;76;21118;-56
2022/04/23 12:17:29;;;;;;;10.85;8.30;;;20.80;43.40;;;;;;1869882;76;21107;-56
2022/04/23 12:19:57;;;;;;;8.95;7.42;;;20.80;43.50;;;;;;1871756;76;21130;-55
2022/04/23 12:22:31;;;;;;;9.30;7.75;;;20.80;43.40;;;;;;1870495;75;21138;-57
2022/04/23 12:25:18;;;;;;;8.88;7.78;;;20.80;43.60;;;;;;1870352;75;21164;-56
2022/04/23 12:27:59;;;;;;;9.35;7.87;;;20.80;43.60;;;;;;1870363;75;21118;-57
2022/04/23 12:41:19;;;;;;;7.92;6.75;;;20.90;43.60;;;;;;1889054;75;21114;-53
2022/04/23 12:43:46;;;;;;;8.60;7.20;;;20.80;43.50;;;;;;1905248;74;21180;-56
2022/04/23 12:46:14;;;;;;;8.58;7.35;;;20.80;43.50;;;;;;1892553;75;21138;-56
2022/04/23 12:49:00;;;;;;;7.70;6.90;;;20.80;43.50;;;;;;1880089;75;21164;-56
2022/04/23 12:51:28;;;;;;;9.38;7.55;;;20.80;43.40;;;;;;1879819;76;21171;-55
2022/04/23 12:53:55;;;;;;;9.60;7.33;;;20.80;43.40;;;;;;1890623;75;21129;-56
2022/04/23 12:56:35;;;;;;;8.80;7.42;;;20.80;43.40;;;;;;1910378;74;21070;-57
2022/04/23 12:59:03;;;;;;;8.68;7.30;;;20.80;43.50;;;;;;1910808;74;21074;-56
2022/04/23 13:01:31;;;;;;;9.08;7.53;;;20.80;43.40;;;;;;1893463;74;21495;-56
2022/04/23 13:04:01;;;;;;;8.88;7.97;;;20.80;43.40;;;;;;1885507;74;21183;-56
2022/04/23 13:09:12;;;;;;;7.80;6.87;;;20.80;43.50;;;;;;1872985;75;21107;-56
2022/04/23 13:11:39;;;;;;;9.23;8.00;;;20.80;43.40;;;;;;1857771;77;21580;-56
2022/04/23 13:14:07;;;;;;;8.15;6.80;;;20.80;43.40;;;;;;1866969;75;21129;-56
2022/04/23 13:16:36;;;;;;;9.65;7.20;;;20.80;43.40;;;;;;1898608;75;21603;-57
2022/04/23 13:19:04;;;;;;;7.60;6.78;;;20.80;43.40;;;;;;1897833;75;21122;-57
2022/04/23 13:21:33;;;;;;;11.25;7.47;;;20.80;43.40;;;;;;1897948;75;21118;-57
2022/04/23 13:24:00;;;;;;;8.23;7.03;;;20.80;43.50;;;;;;1887790;75;21557;-54